sensor_id;sensor_type;location;lat;lon;timestamp;P1;durP1;ratioP1;P2;durP2;ratioP2
57087;SDS011;42965;52.846;6.614;2023-04-24T00:00:31;4.25;;;2.25;;
57087;SDS011;42965;52.846;6.614;2023-04-24T00:02:57;2.30;;;1.95;;
57087;SDS011;42965;52.846;6.614;2023-04-24T00:05:24;3.42;;;2.53;;
57087;SDS011;42965;52.846;6.614;2023-04-24T00:07:50;3.35;;;2.80;;
57087;SDS011;42965;52.846;6.614;2023-04-24T00:10:20;3.38;;;2.85;;
57087;SDS011;42965;52.846;6.614;2023-04-24T00:12:47;3.75;;;3.20;;
57087;SDS011;42965;52.846;6.614;2023-04-24T00:15:13;4.57;;;3.45;;
57087;SDS011;42965;52.846;6.614;2023-04-24T00:17:39;4.22;;;3.83;;
57087;SDS011;42965;52.846;6.614;2023-04-24T00:20:06;5.28;;;3.42;;
57087;SDS011;42965;52.846;6.614;2023-04-24T00:22:32;4.28;;;3.80;;
57087;SDS011;42965;52.846;6.614;2023-04-24T00:24:59;4.78;;;4.28;;
57087;SDS011;42965;52.846;6.614;2023-04-24T00:27:25;5.47;;;4.75;;
57087;SDS011;42965;52.846;6.614;2023-04-24T00:29:51;5.47;;;4.47;;
57087;SDS011;42965;52.846;6.614;2023-04-24T00:32:18;5.40;;;4.57;;
57087;SDS011;42965;52.846;6.614;2023-04-24T00:34:44;5.07;;;4.28;;
57087;SDS011;42965;52.846;6.614;2023-04-24T00:37:10;5.78;;;5.18;;
57087;SDS011;42965;52.846;6.614;2023-04-24T00:39:37;6.10;;;5.50;;
57087;SDS011;42965;52.846;6.614;2023-04-24T00:42:03;5.85;;;5.00;;
57087;SDS011;42965;52.846;6.614;2023-04-24T00:44:32;6.32;;;5.68;;
57087;SDS011;42965;52.846;6.614;2023-04-24T00:47:00;7.80;;;5.60;;
57087;SDS011;42965;52.846;6.614;2023-04-24T00:49:27;7.78;;;6.22;;
57087;SDS011;42965;52.846;6.614;2023-04-24T00:51:53;7.07;;;6.18;;
57087;SDS011;42965;52.846;6.614;2023-04-24T00:54:19;8.27;;;7.22;;
57087;SDS011;42965;52.846;6.614;2023-04-24T00:56:46;7.97;;;7.18;;
57087;SDS011;42965;52.846;6.614;2023-04-24T00:59:12;8.05;;;7.13;;
57087;SDS011;42965;52.846;6.614;2023-04-24T01:01:40;8.98;;;7.53;;
57087;SDS011;42965;52.846;6.614;2023-04-24T01:04:07;8.00;;;7.20;;
57087;SDS011;42965;52.846;6.614;2023-04-24T01:06:37;8.13;;;7.32;;
57087;SDS011;42965;52.846;6.614;2023-04-24T01:09:05;8.75;;;7.85;;
57087;SDS011;42965;52.846;6.614;2023-04-24T01:11:33;11.40;;;9.07;;
57087;SDS011;42965;52.846;6.614;2023-04-24T01:14:00;10.60;;;9.60;;
57087;SDS011;42965;52.846;6.614;2023-04-24T01:16:27;10.98;;;9.25;;
57087;SDS011;42965;52.846;6.614;2023-04-24T01:18:53;10.15;;;9.15;;
57087;SDS011;42965;52.846;6.614;2023-04-24T01:21:19;10.27;;;8.75;;
57087;SDS011;42965;52.846;6.614;2023-04-24T01:23:47;10.05;;;8.93;;
57087;SDS011;42965;52.846;6.614;2023-04-24T01:26:14;10.98;;;9.88;;
57087;SDS011;42965;52.846;6.614;2023-04-24T01:28:41;9.90;;;8.90;;
57087;SDS011;42965;52.846;6.614;2023-04-24T01:31:08;10.77;;;9.68;;
57087;SDS011;42965;52.846;6.614;2023-04-24T01:33:34;9.52;;;8.43;;
57087;SDS011;42965;52.846;6.614;2023-04-24T01:36:00;8.35;;;7.55;;
57087;SDS011;42965;52.846;6.614;2023-04-24T01:38:27;9.23;;;8.43;;
57087;SDS011;42965;52.846;6.614;2023-04-24T01:40:53;9.38;;;8.57;;
57087;SDS011;42965;52.846;6.614;2023-04-24T01:43:19;9.57;;;8.68;;
57087;SDS011;42965;52.846;6.614;2023-04-24T01:45:46;9.02;;;8.23;;
57087;SDS011;42965;52.846;6.614;2023-04-24T01:48:13;9.05;;;8.35;;
57087;SDS011;42965;52.846;6.614;2023-04-24T01:50:39;8.93;;;8.23;;
57087;SDS011;42965;52.846;6.614;2023-04-24T01:53:05;9.57;;;8.77;;
57087;SDS011;42965;52.846;6.614;2023-04-24T01:55:31;8.60;;;7.80;;
57087;SDS011;42965;52.846;6.614;2023-04-24T01:57:58;9.40;;;8.60;;
57087;SDS011;42965;52.846;6.614;2023-04-24T02:00:26;8.98;;;8.18;;
57087;SDS011;42965;52.846;6.614;2023-04-24T02:02:52;8.68;;;7.97;;
57087;SDS011;42965;52.846;6.614;2023-04-24T02:05:19;8.60;;;7.78;;
57087;SDS011;42965;52.846;6.614;2023-04-24T02:07:46;9.60;;;8.80;;
57087;SDS011;42965;52.846;6.614;2023-04-24T02:10:12;9.13;;;8.32;;
57087;SDS011;42965;52.846;6.614;2023-04-24T02:12:41;9.30;;;8.50;;
57087;SDS011;42965;52.846;6.614;2023-04-24T02:15:08;8.90;;;8.20;;
57087;SDS011;42965;52.846;6.614;2023-04-24T02:17:36;8.77;;;7.97;;
57087;SDS011;42965;52.846;6.614;2023-04-24T02:20:04;8.63;;;7.82;;
57087;SDS011;42965;52.846;6.614;2023-04-24T02:22:31;9.23;;;8.30;;
57087;SDS011;42965;52.846;6.614;2023-04-24T02:25:01;8.65;;;7.88;;
57087;SDS011;42965;52.846;6.614;2023-04-24T02:27:29;9.30;;;8.50;;
57087;SDS011;42965;52.846;6.614;2023-04-24T02:29:56;9.43;;;8.55;;
57087;SDS011;42965;52.846;6.614;2023-04-24T02:32:22;8.85;;;8.15;;
57087;SDS011;42965;52.846;6.614;2023-04-24T02:34:49;9.88;;;8.98;;
57087;SDS011;42965;52.846;6.614;2023-04-24T02:37:18;10.07;;;9.23;;
57087;SDS011;42965;52.846;6.614;2023-04-24T02:39:44;10.40;;;9.38;;
57087;SDS011;42965;52.846;6.614;2023-04-24T02:42:10;9.40;;;8.50;;
57087;SDS011;42965;52.846;6.614;2023-04-24T02:44:36;9.95;;;9.15;;
57087;SDS011;42965;52.846;6.614;2023-04-24T02:47:02;10.50;;;9.57;;
57087;SDS011;42965;52.846;6.614;2023-04-24T02:49:30;10.35;;;9.48;;
57087;SDS011;42965;52.846;6.614;2023-04-24T02:51:56;10.93;;;9.93;;
57087;SDS011;42965;52.846;6.614;2023-04-24T02:54:22;10.73;;;9.73;;
57087;SDS011;42965;52.846;6.614;2023-04-24T02:56:48;11.25;;;10.15;;
57087;SDS011;42965;52.846;6.614;2023-04-24T02:59:15;10.85;;;9.85;;
57087;SDS011;42965;52.846;6.614;2023-04-24T03:01:41;11.43;;;10.32;;
57087;SDS011;42965;52.846;6.614;2023-04-24T03:04:07;11.18;;;10.07;;
57087;SDS011;42965;52.846;6.614;2023-04-24T03:06:33;11.32;;;10.32;;
57087;SDS011;42965;52.846;6.614;2023-04-24T03:09:01;12.02;;;10.93;;
57087;SDS011;42965;52.846;6.614;2023-04-24T03:11:29;11.77;;;10.77;;
57087;SDS011;42965;52.846;6.614;2023-04-24T03:13:55;11.40;;;10.25;;
57087;SDS011;42965;52.846;6.614;2023-04-24T03:16:21;11.95;;;10.88;;
57087;SDS011;42965;52.846;6.614;2023-04-24T03:18:47;12.45;;;11.25;;
57087;SDS011;42965;52.846;6.614;2023-04-24T03:21:14;12.18;;;11.00;;
57087;SDS011;42965;52.846;6.614;2023-04-24T03:23:41;12.13;;;11.02;;
57087;SDS011;42965;52.846;6.614;2023-04-24T03:26:09;12.15;;;11.05;;
57087;SDS011;42965;52.846;6.614;2023-04-24T03:28:40;11.88;;;10.77;;
57087;SDS011;42965;52.846;6.614;2023-04-24T03:31:06;11.88;;;10.77;;
57087;SDS011;42965;52.846;6.614;2023-04-24T03:33:35;12.98;;;11.68;;
57087;SDS011;42965;52.846;6.614;2023-04-24T03:36:01;13.38;;;11.70;;
57087;SDS011;42965;52.846;6.614;2023-04-24T03:38:36;12.82;;;11.63;;
57087;SDS011;42965;52.846;6.614;2023-04-24T03:41:22;11.63;;;10.63;;
57087;SDS011;42965;52.846;6.614;2023-04-24T03:43:53;10.95;;;9.95;;
57087;SDS011;42965;52.846;6.614;2023-04-24T03:46:19;10.25;;;9.35;;
57087;SDS011;42965;52.846;6.614;2023-04-24T03:48:57;9.43;;;8.57;;
57087;SDS011;42965;52.846;6.614;2023-04-24T03:51:28;8.88;;;8.07;;
57087;SDS011;42965;52.846;6.614;2023-04-24T03:54:05;7.57;;;6.88;;
57087;SDS011;42965;52.846;6.614;2023-04-24T03:56:34;8.70;;;7.90;;
57087;SDS011;42965;52.846;6.614;2023-04-24T03:59:01;7.57;;;6.88;;
57087;SDS011;42965;52.846;6.614;2023-04-24T04:01:28;8.77;;;7.97;;
57087;SDS011;42965;52.846;6.614;2023-04-24T04:04:05;8.07;;;7.28;;
57087;SDS011;42965;52.846;6.614;2023-04-24T04:06:32;6.53;;;5.90;;
57087;SDS011;42965;52.846;6.614;2023-04-24T04:08:59;7.05;;;6.35;;
57087;SDS011;42965;52.846;6.614;2023-04-24T04:11:27;6.30;;;5.28;;
57087;SDS011;42965;52.846;6.614;2023-04-24T04:13:53;5.90;;;5.40;;
57087;SDS011;42965;52.846;6.614;2023-04-24T04:16:21;5.55;;;4.43;;
57087;SDS011;42965;52.846;6.614;2023-04-24T04:18:50;4.45;;;3.75;;
57087;SDS011;42965;52.846;6.614;2023-04-24T04:21:16;4.10;;;3.22;;
57087;SDS011;42965;52.846;6.614;2023-04-24T04:23:43;2.58;;;2.30;;
57087;SDS011;42965;52.846;6.614;2023-04-24T04:26:23;3.53;;;2.50;;
57087;SDS011;42965;52.846;6.614;2023-04-24T04:28:59;5.68;;;3.78;;
57087;SDS011;42965;52.846;6.614;2023-04-24T04:31:29;7.35;;;6.38;;
57087;SDS011;42965;52.846;6.614;2023-04-24T04:33:59;7.63;;;6.93;;
57087;SDS011;42965;52.846;6.614;2023-04-24T04:36:28;9.43;;;8.50;;
57087;SDS011;42965;52.846;6.614;2023-04-24T04:39:02;8.95;;;7.88;;
57087;SDS011;42965;52.846;6.614;2023-04-24T04:41:52;9.75;;;8.85;;
57087;SDS011;42965;52.846;6.614;2023-04-24T04:44:21;9.63;;;8.63;;
57087;SDS011;42965;52.846;6.614;2023-04-24T04:46:49;9.38;;;8.48;;
57087;SDS011;42965;52.846;6.614;2023-04-24T04:49:24;9.02;;;8.10;;
57087;SDS011;42965;52.846;6.614;2023-04-24T04:51:50;8.90;;;8.05;;
57087;SDS011;42965;52.846;6.614;2023-04-24T04:54:17;8.32;;;7.53;;
57087;SDS011;42965;52.846;6.614;2023-04-24T04:56:45;7.63;;;6.82;;
57087;SDS011;42965;52.846;6.614;2023-04-24T04:59:13;7.50;;;6.75;;
57087;SDS011;42965;52.846;6.614;2023-04-24T05:01:40;6.60;;;5.93;;
57087;SDS011;42965;52.846;6.614;2023-04-24T05:04:07;6.80;;;5.50;;
57087;SDS011;42965;52.846;6.614;2023-04-24T05:06:34;6.90;;;5.93;;
57087;SDS011;42965;52.846;6.614;2023-04-24T05:09:00;6.05;;;5.45;;
57087;SDS011;42965;52.846;6.614;2023-04-24T05:11:36;6.22;;;5.47;;
57087;SDS011;42965;52.846;6.614;2023-04-24T05:14:02;6.75;;;5.75;;
57087;SDS011;42965;52.846;6.614;2023-04-24T05:16:36;6.57;;;5.32;;
57087;SDS011;42965;52.846;6.614;2023-04-24T05:19:04;7.45;;;5.65;;
57087;SDS011;42965;52.846;6.614;2023-04-24T05:21:35;6.20;;;5.60;;
57087;SDS011;42965;52.846;6.614;2023-04-24T05:24:02;6.45;;;5.32;;
57087;SDS011;42965;52.846;6.614;2023-04-24T05:27:00;7.03;;;6.20;;
57087;SDS011;42965;52.846;6.614;2023-04-24T05:29:33;8.13;;;6.85;;
57087;SDS011;42965;52.846;6.614;2023-04-24T05:32:00;7.03;;;6.30;;
57087;SDS011;42965;52.846;6.614;2023-04-24T05:34:28;9.52;;;6.93;;
57087;SDS011;42965;52.846;6.614;2023-04-24T05:36:56;9.02;;;7.47;;
57087;SDS011;42965;52.846;6.614;2023-04-24T05:39:22;8.15;;;6.70;;
57087;SDS011;42965;52.846;6.614;2023-04-24T05:41:51;10.07;;;8.02;;
57087;SDS011;42965;52.846;6.614;2023-04-24T05:44:17;9.77;;;7.65;;
57087;SDS011;42965;52.846;6.614;2023-04-24T05:46:43;10.80;;;7.75;;
57087;SDS011;42965;52.846;6.614;2023-04-24T05:49:11;9.63;;;7.13;;
57087;SDS011;42965;52.846;6.614;2023-04-24T05:51:37;9.77;;;7.10;;
57087;SDS011;42965;52.846;6.614;2023-04-24T05:54:05;10.88;;;7.97;;
57087;SDS011;42965;52.846;6.614;2023-04-24T05:56:31;11.48;;;7.47;;
57087;SDS011;42965;52.846;6.614;2023-04-24T05:58:59;13.55;;;8.48;;
57087;SDS011;42965;52.846;6.614;2023-04-24T06:01:25;12.40;;;8.23;;
57087;SDS011;42965;52.846;6.614;2023-04-24T06:04:03;11.32;;;8.20;;
57087;SDS011;42965;52.846;6.614;2023-04-24T06:06:30;12.80;;;10.48;;
57087;SDS011;42965;52.846;6.614;2023-04-24T06:08:57;11.57;;;8.50;;
57087;SDS011;42965;52.846;6.614;2023-04-24T06:11:25;12.98;;;8.27;;
57087;SDS011;42965;52.846;6.614;2023-04-24T06:13:51;11.85;;;8.63;;
57087;SDS011;42965;52.846;6.614;2023-04-24T06:16:50;9.93;;;7.63;;
57087;SDS011;42965;52.846;6.614;2023-04-24T06:19:28;8.20;;;5.95;;
57087;SDS011;42965;52.846;6.614;2023-04-24T06:21:55;7.53;;;6.25;;
57087;SDS011;42965;52.846;6.614;2023-04-24T06:24:21;6.97;;;5.50;;
57087;SDS011;42965;52.846;6.614;2023-04-24T06:26:47;7.28;;;6.07;;
57087;SDS011;42965;52.846;6.614;2023-04-24T06:29:13;7.03;;;5.55;;
57087;SDS011;42965;52.846;6.614;2023-04-24T06:31:39;8.63;;;5.93;;
57087;SDS011;42965;52.846;6.614;2023-04-24T06:34:06;8.40;;;6.38;;
57087;SDS011;42965;52.846;6.614;2023-04-24T06:36:32;7.10;;;5.45;;
57087;SDS011;42965;52.846;6.614;2023-04-24T06:39:00;6.72;;;5.45;;
57087;SDS011;42965;52.846;6.614;2023-04-24T06:41:26;6.88;;;5.53;;
57087;SDS011;42965;52.846;6.614;2023-04-24T06:43:54;5.35;;;3.95;;
57087;SDS011;42965;52.846;6.614;2023-04-24T06:46:20;5.40;;;3.25;;
57087;SDS011;42965;52.846;6.614;2023-04-24T06:48:52;5.33;;;3.33;;
57087;SDS011;42965;52.846;6.614;2023-04-24T06:51:24;5.07;;;3.22;;
57087;SDS011;42965;52.846;6.614;2023-04-24T06:53:51;5.20;;;3.90;;
57087;SDS011;42965;52.846;6.614;2023-04-24T06:56:19;6.13;;;4.35;;
57087;SDS011;42965;52.846;6.614;2023-04-24T06:58:46;7.55;;;4.18;;
57087;SDS011;42965;52.846;6.614;2023-04-24T07:01:12;10.00;;;4.47;;
57087;SDS011;42965;52.846;6.614;2023-04-24T07:03:38;7.25;;;4.47;;
57087;SDS011;42965;52.846;6.614;2023-04-24T07:06:05;9.15;;;5.32;;
57087;SDS011;42965;52.846;6.614;2023-04-24T07:08:31;7.32;;;5.03;;
57087;SDS011;42965;52.846;6.614;2023-04-24T07:10:58;7.93;;;5.50;;
57087;SDS011;42965;52.846;6.614;2023-04-24T07:13:26;10.00;;;6.25;;
57087;SDS011;42965;52.846;6.614;2023-04-24T07:15:53;9.63;;;6.30;;
57087;SDS011;42965;52.846;6.614;2023-04-24T07:18:21;9.57;;;5.97;;
57087;SDS011;42965;52.846;6.614;2023-04-24T07:20:48;9.18;;;6.68;;
57087;SDS011;42965;52.846;6.614;2023-04-24T07:23:17;9.65;;;7.00;;
57087;SDS011;42965;52.846;6.614;2023-04-24T07:25:44;11.80;;;8.00;;
57087;SDS011;42965;52.846;6.614;2023-04-24T07:28:10;15.75;;;9.35;;
57087;SDS011;42965;52.846;6.614;2023-04-24T07:30:37;13.27;;;9.88;;
57087;SDS011;42965;52.846;6.614;2023-04-24T07:33:03;15.50;;;10.18;;
57087;SDS011;42965;52.846;6.614;2023-04-24T07:35:29;14.07;;;10.88;;
57087;SDS011;42965;52.846;6.614;2023-04-24T07:37:55;16.63;;;11.65;;
57087;SDS011;42965;52.846;6.614;2023-04-24T07:40:22;15.93;;;11.52;;
57087;SDS011;42965;52.846;6.614;2023-04-24T07:42:49;16.65;;;10.70;;
57087;SDS011;42965;52.846;6.614;2023-04-24T07:45:15;13.90;;;10.25;;
57087;SDS011;42965;52.846;6.614;2023-04-24T07:47:42;16.20;;;8.40;;
57087;SDS011;42965;52.846;6.614;2023-04-24T07:50:09;11.43;;;8.50;;
57087;SDS011;42965;52.846;6.614;2023-04-24T07:52:35;12.23;;;8.90;;
57087;SDS011;42965;52.846;6.614;2023-04-24T07:55:03;12.48;;;7.60;;
57087;SDS011;42965;52.846;6.614;2023-04-24T07:57:31;7.47;;;5.28;;
57087;SDS011;42965;52.846;6.614;2023-04-24T07:59:57;9.40;;;4.68;;
57087;SDS011;42965;52.846;6.614;2023-04-24T08:02:23;6.05;;;4.20;;
57087;SDS011;42965;52.846;6.614;2023-04-24T08:04:52;5.75;;;4.50;;
57087;SDS011;42965;52.846;6.614;2023-04-24T08:07:22;10.27;;;5.70;;
57087;SDS011;42965;52.846;6.614;2023-04-24T08:09:49;7.72;;;4.82;;
57087;SDS011;42965;52.846;6.614;2023-04-24T08:12:15;7.50;;;5.20;;
57087;SDS011;42965;52.846;6.614;2023-04-24T08:14:41;9.55;;;5.55;;
57087;SDS011;42965;52.846;6.614;2023-04-24T08:17:08;6.50;;;4.47;;
57087;SDS011;42965;52.846;6.614;2023-04-24T08:19:35;6.20;;;5.07;;
57087;SDS011;42965;52.846;6.614;2023-04-24T08:22:01;7.22;;;4.25;;
57087;SDS011;42965;52.846;6.614;2023-04-24T08:24:29;7.78;;;4.38;;
57087;SDS011;42965;52.846;6.614;2023-04-24T08:26:55;6.38;;;4.78;;
57087;SDS011;42965;52.846;6.614;2023-04-24T08:29:23;11.60;;;6.65;;
57087;SDS011;42965;52.846;6.614;2023-04-24T08:31:50;9.07;;;5.35;;
57087;SDS011;42965;52.846;6.614;2023-04-24T08:34:16;9.60;;;8.20;;
57087;SDS011;42965;52.846;6.614;2023-04-24T08:36:42;11.00;;;7.93;;
57087;SDS011;42965;52.846;6.614;2023-04-24T08:39:10;12.52;;;7.22;;
57087;SDS011;42965;52.846;6.614;2023-04-24T08:41:37;13.88;;;9.15;;
57087;SDS011;42965;52.846;6.614;2023-04-24T08:44:03;15.90;;;10.15;;
57087;SDS011;42965;52.846;6.614;2023-04-24T08:46:30;22.25;;;10.55;;
57087;SDS011;42965;52.846;6.614;2023-04-24T08:48:57;18.35;;;12.77;;
57087;SDS011;42965;52.846;6.614;2023-04-24T08:51:23;19.45;;;13.27;;
57087;SDS011;42965;52.846;6.614;2023-04-24T08:53:53;20.55;;;14.18;;
57087;SDS011;42965;52.846;6.614;2023-04-24T08:56:21;21.98;;;14.68;;
57087;SDS011;42965;52.846;6.614;2023-04-24T08:58:52;22.33;;;16.17;;
57087;SDS011;42965;52.846;6.614;2023-04-24T09:01:19;25.80;;;16.70;;
57087;SDS011;42965;52.846;6.614;2023-04-24T09:03:48;27.95;;;17.60;;
57087;SDS011;42965;52.846;6.614;2023-04-24T09:06:16;30.00;;;19.60;;
57087;SDS011;42965;52.846;6.614;2023-04-24T09:08:45;30.52;;;19.98;;
57087;SDS011;42965;52.846;6.614;2023-04-24T09:11:13;25.50;;;19.42;;
57087;SDS011;42965;52.846;6.614;2023-04-24T09:13:39;28.52;;;21.10;;
57087;SDS011;42965;52.846;6.614;2023-04-24T09:16:06;29.90;;;19.83;;
57087;SDS011;42965;52.846;6.614;2023-04-24T09:18:33;30.08;;;21.33;;
57087;SDS011;42965;52.846;6.614;2023-04-24T09:21:02;33.42;;;21.35;;
57087;SDS011;42965;52.846;6.614;2023-04-24T09:23:30;30.67;;;22.63;;
57087;SDS011;42965;52.846;6.614;2023-04-24T09:25:57;30.77;;;23.58;;
57087;SDS011;42965;52.846;6.614;2023-04-24T09:28:26;31.08;;;23.60;;
57087;SDS011;42965;52.846;6.614;2023-04-24T09:31:11;34.30;;;24.08;;
57087;SDS011;42965;52.846;6.614;2023-04-24T09:33:40;27.75;;;22.27;;
57087;SDS011;42965;52.846;6.614;2023-04-24T09:36:18;31.35;;;21.23;;
57087;SDS011;42965;52.846;6.614;2023-04-24T09:38:45;27.27;;;19.88;;
57087;SDS011;42965;52.846;6.614;2023-04-24T09:41:13;25.10;;;20.08;;
57087;SDS011;42965;52.846;6.614;2023-04-24T09:43:39;24.48;;;19.70;;
57087;SDS011;42965;52.846;6.614;2023-04-24T09:46:06;24.02;;;18.27;;
57087;SDS011;42965;52.846;6.614;2023-04-24T09:48:34;26.17;;;18.08;;
57087;SDS011;42965;52.846;6.614;2023-04-24T09:51:02;21.48;;;16.80;;
57087;SDS011;42965;52.846;6.614;2023-04-24T09:53:32;24.92;;;16.80;;
57087;SDS011;42965;52.846;6.614;2023-04-24T09:56:03;20.73;;;16.95;;
57087;SDS011;42965;52.846;6.614;2023-04-24T09:58:36;22.25;;;15.65;;
57087;SDS011;42965;52.846;6.614;2023-04-24T10:01:02;25.77;;;17.05;;
57087;SDS011;42965;52.846;6.614;2023-04-24T10:03:29;24.83;;;17.88;;
57087;SDS011;42965;52.846;6.614;2023-04-24T10:06:00;28.17;;;16.92;;
57087;SDS011;42965;52.846;6.614;2023-04-24T10:08:27;27.60;;;16.80;;
57087;SDS011;42965;52.846;6.614;2023-04-24T10:11:00;26.33;;;17.70;;
57087;SDS011;42965;52.846;6.614;2023-04-24T10:13:26;22.75;;;15.65;;
57087;SDS011;42965;52.846;6.614;2023-04-24T10:15:54;25.17;;;13.55;;
57087;SDS011;42965;52.846;6.614;2023-04-24T10:18:21;19.70;;;13.32;;
57087;SDS011;42965;52.846;6.614;2023-04-24T10:20:52;18.27;;;12.80;;
57087;SDS011;42965;52.846;6.614;2023-04-24T10:23:20;18.83;;;11.45;;
57087;SDS011;42965;52.846;6.614;2023-04-24T10:25:47;19.83;;;13.38;;
57087;SDS011;42965;52.846;6.614;2023-04-24T10:28:15;19.67;;;11.65;;
57087;SDS011;42965;52.846;6.614;2023-04-24T10:30:42;19.20;;;11.55;;
57087;SDS011;42965;52.846;6.614;2023-04-24T10:33:09;16.23;;;8.73;;
57087;SDS011;42965;52.846;6.614;2023-04-24T10:35:37;14.80;;;8.50;;
57087;SDS011;42965;52.846;6.614;2023-04-24T10:38:10;18.75;;;9.70;;
57087;SDS011;42965;52.846;6.614;2023-04-24T10:40:39;17.48;;;8.43;;
57087;SDS011;42965;52.846;6.614;2023-04-24T10:43:06;12.55;;;8.32;;
57087;SDS011;42965;52.846;6.614;2023-04-24T10:45:37;13.27;;;7.68;;
57087;SDS011;42965;52.846;6.614;2023-04-24T10:48:04;22.40;;;7.35;;
57087;SDS011;42965;52.846;6.614;2023-04-24T10:50:43;12.15;;;5.78;;
57087;SDS011;42965;52.846;6.614;2023-04-24T10:53:14;13.25;;;6.18;;
57087;SDS011;42965;52.846;6.614;2023-04-24T10:59:03;12.40;;;4.82;;
57087;SDS011;42965;52.846;6.614;2023-04-24T11:03:56;11.38;;;4.90;;
57087;SDS011;42965;52.846;6.614;2023-04-24T11:06:43;10.63;;;4.88;;
57087;SDS011;42965;52.846;6.614;2023-04-24T11:09:10;14.60;;;6.18;;
57087;SDS011;42965;52.846;6.614;2023-04-24T11:11:45;17.10;;;5.63;;
57087;SDS011;42965;52.846;6.614;2023-04-24T11:14:15;16.73;;;5.75;;
57087;SDS011;42965;52.846;6.614;2023-04-24T11:16:51;13.93;;;5.30;;
57087;SDS011;42965;52.846;6.614;2023-04-24T11:19:20;16.45;;;5.65;;
57087;SDS011;42965;52.846;6.614;2023-04-24T11:27:15;11.02;;;4.28;;
57087;SDS011;42965;52.846;6.614;2023-04-24T11:30:17;13.07;;;3.85;;
57087;SDS011;42965;52.846;6.614;2023-04-24T11:32:42;13.60;;;4.05;;
57087;SDS011;42965;52.846;6.614;2023-04-24T11:35:16;10.95;;;4.28;;
57087;SDS011;42965;52.846;6.614;2023-04-24T11:37:47;11.85;;;3.67;;
57087;SDS011;42965;52.846;6.614;2023-04-24T11:40:15;15.98;;;4.38;;
57087;SDS011;42965;52.846;6.614;2023-04-24T11:42:43;11.40;;;3.72;;
57087;SDS011;42965;52.846;6.614;2023-04-24T11:45:11;13.98;;;4.38;;
57087;SDS011;42965;52.846;6.614;2023-04-24T11:47:39;12.75;;;4.55;;
57087;SDS011;42965;52.846;6.614;2023-04-24T11:50:07;10.50;;;3.78;;
57087;SDS011;42965;52.846;6.614;2023-04-24T11:52:38;12.95;;;4.15;;
57087;SDS011;42965;52.846;6.614;2023-04-24T11:55:07;10.13;;;2.80;;
57087;SDS011;42965;52.846;6.614;2023-04-24T11:57:53;12.75;;;3.38;;
57087;SDS011;42965;52.846;6.614;2023-04-24T12:00:25;9.38;;;3.28;;
57087;SDS011;42965;52.846;6.614;2023-04-24T12:03:03;8.75;;;2.78;;
57087;SDS011;42965;52.846;6.614;2023-04-24T12:05:34;13.60;;;3.20;;
57087;SDS011;42965;52.846;6.614;2023-04-24T12:08:00;7.63;;;2.47;;
57087;SDS011;42965;52.846;6.614;2023-04-24T12:10:28;9.40;;;2.63;;
57087;SDS011;42965;52.846;6.614;2023-04-24T12:12:56;8.27;;;2.50;;
57087;SDS011;42965;52.846;6.614;2023-04-24T12:15:23;11.50;;;3.17;;
57087;SDS011;42965;52.846;6.614;2023-04-24T12:17:53;7.63;;;2.33;;
57087;SDS011;42965;52.846;6.614;2023-04-24T12:20:24;8.55;;;2.50;;
57087;SDS011;42965;52.846;6.614;2023-04-24T12:22:54;9.65;;;3.03;;
57087;SDS011;42965;52.846;6.614;2023-04-24T12:25:29;9.10;;;2.70;;
57087;SDS011;42965;52.846;6.614;2023-04-24T12:30:35;10.93;;;2.72;;
57087;SDS011;42965;52.846;6.614;2023-04-24T12:33:10;8.10;;;2.50;;
57087;SDS011;42965;52.846;6.614;2023-04-24T12:35:36;7.85;;;2.47;;
57087;SDS011;42965;52.846;6.614;2023-04-24T12:38:09;8.65;;;2.28;;
57087;SDS011;42965;52.846;6.614;2023-04-24T12:40:38;4.50;;;1.50;;
57087;SDS011;42965;52.846;6.614;2023-04-24T12:43:15;2.92;;;1.33;;
57087;SDS011;42965;52.846;6.614;2023-04-24T12:45:42;6.55;;;1.45;;
57087;SDS011;42965;52.846;6.614;2023-04-24T12:48:08;4.05;;;1.30;;
57087;SDS011;42965;52.846;6.614;2023-04-24T12:50:34;4.00;;;1.25;;
57087;SDS011;42965;52.846;6.614;2023-04-24T12:53:01;4.40;;;1.30;;
57087;SDS011;42965;52.846;6.614;2023-04-24T12:55:27;5.95;;;1.55;;
57087;SDS011;42965;52.846;6.614;2023-04-24T12:57:54;3.10;;;1.23;;
57087;SDS011;42965;52.846;6.614;2023-04-24T13:00:21;3.22;;;1.27;;
57087;SDS011;42965;52.846;6.614;2023-04-24T13:02:47;4.05;;;1.30;;
57087;SDS011;42965;52.846;6.614;2023-04-24T13:05:14;2.33;;;1.30;;
57087;SDS011;42965;52.846;6.614;2023-04-24T13:07:41;5.22;;;1.50;;
57087;SDS011;42965;52.846;6.614;2023-04-24T13:10:07;6.45;;;1.40;;
57087;SDS011;42965;52.846;6.614;2023-04-24T13:12:34;3.72;;;1.23;;
57087;SDS011;42965;52.846;6.614;2023-04-24T13:15:00;7.63;;;1.92;;
57087;SDS011;42965;52.846;6.614;2023-04-24T13:17:27;5.60;;;1.63;;
57087;SDS011;42965;52.846;6.614;2023-04-24T13:19:54;7.35;;;1.75;;
57087;SDS011;42965;52.846;6.614;2023-04-24T13:22:21;6.32;;;2.03;;
57087;SDS011;42965;52.846;6.614;2023-04-24T13:24:48;4.93;;;1.27;;
57087;SDS011;42965;52.846;6.614;2023-04-24T13:27:15;6.35;;;2.00;;
57087;SDS011;42965;52.846;6.614;2023-04-24T13:29:42;8.93;;;1.67;;
57087;SDS011;42965;52.846;6.614;2023-04-24T13:32:08;10.77;;;2.00;;
57087;SDS011;42965;52.846;6.614;2023-04-24T13:34:34;7.43;;;1.60;;
57087;SDS011;42965;52.846;6.614;2023-04-24T13:37:02;5.78;;;1.50;;
57087;SDS011;42965;52.846;6.614;2023-04-24T13:39:29;4.97;;;1.27;;
57087;SDS011;42965;52.846;6.614;2023-04-24T13:41:56;5.20;;;2.17;;
57087;SDS011;42965;52.846;6.614;2023-04-24T13:44:23;4.85;;;1.05;;
57087;SDS011;42965;52.846;6.614;2023-04-24T13:46:50;6.78;;;1.67;;
57087;SDS011;42965;52.846;6.614;2023-04-24T13:49:20;6.43;;;1.50;;
57087;SDS011;42965;52.846;6.614;2023-04-24T13:51:47;7.18;;;1.50;;
57087;SDS011;42965;52.846;6.614;2023-04-24T13:54:13;5.95;;;1.75;;
57087;SDS011;42965;52.846;6.614;2023-04-24T13:56:40;6.07;;;1.48;;
57087;SDS011;42965;52.846;6.614;2023-04-24T13:59:06;9.85;;;2.10;;
57087;SDS011;42965;52.846;6.614;2023-04-24T14:01:32;7.18;;;2.28;;
57087;SDS011;42965;52.846;6.614;2023-04-24T14:03:59;7.40;;;1.85;;
57087;SDS011;42965;52.846;6.614;2023-04-24T14:06:25;7.20;;;2.05;;
57087;SDS011;42965;52.846;6.614;2023-04-24T14:08:51;6.18;;;1.88;;
57087;SDS011;42965;52.846;6.614;2023-04-24T14:11:18;8.23;;;1.77;;
57087;SDS011;42965;52.846;6.614;2023-04-24T14:13:45;5.57;;;1.77;;
57087;SDS011;42965;52.846;6.614;2023-04-24T14:16:12;6.82;;;2.15;;
57087;SDS011;42965;52.846;6.614;2023-04-24T14:18:39;8.30;;;2.22;;
57087;SDS011;42965;52.846;6.614;2023-04-24T14:21:05;8.88;;;3.05;;
57087;SDS011;42965;52.846;6.614;2023-04-24T14:23:32;9.43;;;2.42;;
57087;SDS011;42965;52.846;6.614;2023-04-24T14:25:59;11.52;;;1.85;;
57087;SDS011;42965;52.846;6.614;2023-04-24T14:28:25;5.72;;;1.58;;
57087;SDS011;42965;52.846;6.614;2023-04-24T14:30:52;7.25;;;2.05;;
57087;SDS011;42965;52.846;6.614;2023-04-24T14:33:18;9.73;;;2.10;;
57087;SDS011;42965;52.846;6.614;2023-04-24T14:35:45;11.15;;;2.75;;
57087;SDS011;42965;52.846;6.614;2023-04-24T14:38:12;10.30;;;2.33;;
57087;SDS011;42965;52.846;6.614;2023-04-24T14:40:38;13.93;;;2.40;;
57087;SDS011;42965;52.846;6.614;2023-04-24T14:43:05;9.93;;;2.97;;
57087;SDS011;42965;52.846;6.614;2023-04-24T14:45:32;8.48;;;2.28;;
57087;SDS011;42965;52.846;6.614;2023-04-24T14:47:58;11.52;;;2.83;;
57087;SDS011;42965;52.846;6.614;2023-04-24T14:50:25;11.25;;;2.65;;
57087;SDS011;42965;52.846;6.614;2023-04-24T14:52:55;13.15;;;3.35;;
57087;SDS011;42965;52.846;6.614;2023-04-24T14:55:27;15.90;;;3.17;;
57087;SDS011;42965;52.846;6.614;2023-04-24T14:57:54;17.45;;;3.70;;
57087;SDS011;42965;52.846;6.614;2023-04-24T15:00:21;14.30;;;3.55;;